LNG Imo — ZCDT6 — position and weather

sailwx.info

Track history (hours):
 
Tides and Currents Weather Stations Pressure Air Temp Water Temp Dewpoint Dewpoint Depression Visibility Wind Speed Wind Dir Waves Ship Positions

LNG Imo

Last reported at 2015-Feb-11 11:04 UTC. Time now 2015-Mar-06 17:40 UTC.
Position N 01°12' E 103°41'.
Warning: this ship's position is 23 days out of date.

; draft 9.1 m.

Type: Ship (hazmat cat D). MMSI: 310565000.

Date/timePositionNaut miles runAvg speedWind from/ knotsBaromVisibWave heightAir tempDewpointWater temp
2015-Feb-11 11:04N 01°12' E 103°41'0 0.1
2015-Feb-11 10:33N 01°12' E 103°41'1 1.4
2015-Feb-11 09:29N 01°10' E 103°42'7 7.5
2015-Feb-11 08:33N 01°11' E 103°48'7 6.8
2015-Feb-11 07:33N 01°14' E 103°55'  
2015-Feb-05 06:13N 34°03' E 130°46'5 0.2
2015-Feb-04 03:25N 34°01' E 130°51'8 6.3
2015-Feb-04 02:10N 34°03' E 130°42'2612.8
2015-Feb-04 00:08N 34°02' E 130°11'  
Track history (hours):
 
Tides and Currents Weather Stations Pressure Air Temp Water Temp Dewpoint Dewpoint Depression Visibility Wind Speed Wind Dir Waves Ship Positions

LNG Imo

Last reported at 2015-Feb-11 11:04 UTC. Time now 2015-Mar-06 17:40 UTC.
Position N 01°12' E 103°41'.
Warning: this ship's position is 23 days out of date.

; draft 9.1 m.

Type: Ship (hazmat cat D). MMSI: 310565000.

Date/timePositionNaut miles runAvg speedWind from/ knotsBaromVisibWave heightAir tempDewpointWater temp
2015-Feb-11 11:04N 01°12' E 103°41'0 0.1
2015-Feb-11 10:33N 01°12' E 103°41'1 1.4
2015-Feb-11 09:29N 01°10' E 103°42'7 7.5
2015-Feb-11 08:33N 01°11' E 103°48'7 6.8
2015-Feb-11 07:33N 01°14' E 103°55'  
2015-Feb-05 06:13N 34°03' E 130°46'5 0.2
2015-Feb-04 03:25N 34°01' E 130°51'8 6.3
2015-Feb-04 02:10N 34°03' E 130°42'2612.8
2015-Feb-04 00:08N 34°02' E 130°11'  

Dump ship's entire track history